sensor_id;sensor_type;location;lat;lon;timestamp;pressure;altitude;pressure_sealevel;temperature;humidity
78064;BME280;67429;51.596;-3.264;2023-04-01T00:01:49;97991.68;;;7.25;68.55
78064;BME280;67429;51.596;-3.264;2023-04-01T00:04:14;97995.56;;;7.50;67.14
78064;BME280;67429;51.596;-3.264;2023-04-01T00:06:40;97996.24;;;7.73;67.30
78064;BME280;67429;51.596;-3.264;2023-04-01T00:09:06;98000.56;;;7.38;67.11
78064;BME280;67429;51.596;-3.264;2023-04-01T00:11:32;98000.70;;;7.46;66.99
78064;BME280;67429;51.596;-3.264;2023-04-01T00:13:57;98001.77;;;7.16;67.90
78064;BME280;67429;51.596;-3.264;2023-04-01T00:16:23;98007.12;;;7.60;66.48
78064;BME280;67429;51.596;-3.264;2023-04-01T00:18:49;98010.26;;;7.52;66.84
78064;BME280;67429;51.596;-3.264;2023-04-01T00:21:15;98013.26;;;6.74;69.37
78064;BME280;67429;51.596;-3.264;2023-04-01T00:23:40;98016.91;;;7.02;68.94
78064;BME280;67429;51.596;-3.264;2023-04-01T00:26:06;98020.39;;;6.76;69.24
78064;BME280;67429;51.596;-3.264;2023-04-01T00:28:33;98015.37;;;6.93;69.51
78064;BME280;67429;51.596;-3.264;2023-04-01T00:30:57;98013.84;;;7.05;68.74
78064;BME280;67429;51.596;-3.264;2023-04-01T00:33:23;98013.34;;;6.95;68.73
78064;BME280;67429;51.596;-3.264;2023-04-01T00:35:48;98011.82;;;7.07;68.50
78064;BME280;67429;51.596;-3.264;2023-04-01T00:38:14;98017.11;;;7.18;68.63
78064;BME280;67429;51.596;-3.264;2023-04-01T00:40:42;98016.79;;;6.53;70.13
78064;BME280;67429;51.596;-3.264;2023-04-01T00:43:11;98016.64;;;6.79;69.85
78064;BME280;67429;51.596;-3.264;2023-04-01T00:45:33;98014.92;;;7.06;68.94
78064;BME280;67429;51.596;-3.264;2023-04-01T00:47:59;98013.73;;;7.10;68.82
78064;BME280;67429;51.596;-3.264;2023-04-01T00:50:24;98016.44;;;7.13;68.88
78064;BME280;67429;51.596;-3.264;2023-04-01T00:52:48;98016.74;;;7.27;69.09
78064;BME280;67429;51.596;-3.264;2023-04-01T00:55:14;98021.20;;;7.02;69.48
78064;BME280;67429;51.596;-3.264;2023-04-01T00:57:40;98024.42;;;6.89;69.33
78064;BME280;67429;51.596;-3.264;2023-04-01T01:00:09;98024.93;;;6.67;70.53
78064;BME280;67429;51.596;-3.264;2023-04-01T01:02:32;98029.46;;;6.72;69.28
78064;BME280;67429;51.596;-3.264;2023-04-01T01:04:57;98028.48;;;7.45;68.74
78064;BME280;67429;51.596;-3.264;2023-04-01T01:07:27;98031.97;;;7.17;68.26
78064;BME280;67429;51.596;-3.264;2023-04-01T01:09:54;98032.48;;;7.16;68.08
78064;BME280;67429;51.596;-3.264;2023-04-01T01:12:14;98033.97;;;7.64;66.77
78064;BME280;67429;51.596;-3.264;2023-04-01T01:14:49;98032.35;;;8.06;66.21
78064;BME280;67429;51.596;-3.264;2023-04-01T01:17:11;98035.53;;;7.47;66.92
78064;BME280;67429;51.596;-3.264;2023-04-01T01:22:07;98037.86;;;7.02;67.63
78064;BME280;67429;51.596;-3.264;2023-04-01T01:24:28;98043.18;;;6.89;68.50
78064;BME280;67429;51.596;-3.264;2023-04-01T01:26:52;98043.40;;;6.76;68.10
78064;BME280;67429;51.596;-3.264;2023-04-01T01:31:44;98043.85;;;6.63;69.06
78064;BME280;67429;51.596;-3.264;2023-04-01T01:34:13;98046.44;;;7.13;68.09
78064;BME280;67429;51.596;-3.264;2023-04-01T01:36:32;98047.16;;;6.98;68.86
78064;BME280;67429;51.596;-3.264;2023-04-01T01:38:57;98047.36;;;7.23;67.67
78064;BME280;67429;51.596;-3.264;2023-04-01T01:41:22;98052.09;;;6.67;69.31
78064;BME280;67429;51.596;-3.264;2023-04-01T01:43:49;98052.16;;;6.47;69.64
78064;BME280;67429;51.596;-3.264;2023-04-01T01:46:15;98055.68;;;6.70;69.51
78064;BME280;67429;51.596;-3.264;2023-04-01T01:48:39;98053.29;;;6.55;69.93
78064;BME280;67429;51.596;-3.264;2023-04-01T01:51:05;98056.32;;;6.49;70.95
78064;BME280;67429;51.596;-3.264;2023-04-01T01:53:29;98051.35;;;6.37;70.53
78064;BME280;67429;51.596;-3.264;2023-04-01T01:55:55;98057.14;;;6.40;70.01
78064;BME280;67429;51.596;-3.264;2023-04-01T01:58:23;98057.25;;;6.61;70.49
78064;BME280;67429;51.596;-3.264;2023-04-01T02:00:50;98061.44;;;6.34;70.20
78064;BME280;67429;51.596;-3.264;2023-04-01T02:03:12;98067.22;;;6.59;69.30
78064;BME280;67429;51.596;-3.264;2023-04-01T02:05:38;98068.85;;;6.54;69.97
78064;BME280;67429;51.596;-3.264;2023-04-01T02:08:07;98069.74;;;5.92;71.14
78064;BME280;67429;51.596;-3.264;2023-04-01T02:10:32;98072.90;;;6.37;69.85
78064;BME280;67429;51.596;-3.264;2023-04-01T02:12:58;98073.45;;;6.23;70.63
78064;BME280;67429;51.596;-3.264;2023-04-01T02:15:21;98080.99;;;6.90;69.18
78064;BME280;67429;51.596;-3.264;2023-04-01T02:17:47;98080.69;;;7.13;68.15
78064;BME280;67429;51.596;-3.264;2023-04-01T02:20:14;98085.16;;;6.94;68.65
78064;BME280;67429;51.596;-3.264;2023-04-01T02:22:39;98083.97;;;6.41;68.53
78064;BME280;67429;51.596;-3.264;2023-04-01T02:25:06;98078.53;;;6.13;70.37
78064;BME280;67429;51.596;-3.264;2023-04-01T02:27:30;98083.26;;;6.72;69.12
78064;BME280;67429;51.596;-3.264;2023-04-01T02:29:54;98077.76;;;6.55;70.26
78064;BME280;67429;51.596;-3.264;2023-04-01T02:32:20;98083.79;;;6.87;68.78
78064;BME280;67429;51.596;-3.264;2023-04-01T02:34:46;98079.56;;;6.31;70.16
78064;BME280;67429;51.596;-3.264;2023-04-01T02:37:12;98082.44;;;6.50;70.28
78064;BME280;67429;51.596;-3.264;2023-04-01T02:39:37;98083.33;;;5.99;70.41
78064;BME280;67429;51.596;-3.264;2023-04-01T02:42:03;98085.44;;;6.85;68.21
78064;BME280;67429;51.596;-3.264;2023-04-01T02:44:28;98086.09;;;6.41;69.17
78064;BME280;67429;51.596;-3.264;2023-04-01T02:46:54;98086.50;;;6.74;68.89
78064;BME280;67429;51.596;-3.264;2023-04-01T02:49:19;98093.68;;;6.53;67.92
78064;BME280;67429;51.596;-3.264;2023-04-01T02:51:45;98092.49;;;6.89;66.90
78064;BME280;67429;51.596;-3.264;2023-04-01T02:54:11;98094.60;;;7.03;66.84
78064;BME280;67429;51.596;-3.264;2023-04-01T02:56:36;98096.63;;;6.97;67.37
78064;BME280;67429;51.596;-3.264;2023-04-01T02:59:02;98093.73;;;6.60;68.69
78064;BME280;67429;51.596;-3.264;2023-04-01T03:01:27;98095.45;;;6.78;68.26
78064;BME280;67429;51.596;-3.264;2023-04-01T03:03:53;98091.77;;;6.16;69.87
78064;BME280;67429;51.596;-3.264;2023-04-01T03:06:19;98089.47;;;6.17;69.74
78064;BME280;67429;51.596;-3.264;2023-04-01T03:08:44;98098.49;;;6.97;67.68
78064;BME280;67429;51.596;-3.264;2023-04-01T03:11:11;98093.87;;;6.34;69.83
78064;BME280;67429;51.596;-3.264;2023-04-01T03:13:36;98096.53;;;6.38;69.09
78064;BME280;67429;51.596;-3.264;2023-04-01T03:16:02;98100.47;;;6.70;67.38
78064;BME280;67429;51.596;-3.264;2023-04-01T03:18:27;98105.44;;;7.24;66.38
78064;BME280;67429;51.596;-3.264;2023-04-01T03:20:53;98099.32;;;6.59;68.85
78064;BME280;67429;51.596;-3.264;2023-04-01T03:23:19;98100.12;;;6.15;70.07
78064;BME280;67429;51.596;-3.264;2023-04-01T03:25:44;98100.22;;;6.04;70.51
78064;BME280;67429;51.596;-3.264;2023-04-01T03:28:10;98101.40;;;6.40;69.03
78064;BME280;67429;51.596;-3.264;2023-04-01T03:30:35;98104.01;;;6.14;69.16
78064;BME280;67429;51.596;-3.264;2023-04-01T03:33:02;98110.45;;;5.98;69.05
78064;BME280;67429;51.596;-3.264;2023-04-01T03:35:27;98110.76;;;5.72;70.71
78064;BME280;67429;51.596;-3.264;2023-04-01T03:37:53;98110.86;;;6.21;70.12
78064;BME280;67429;51.596;-3.264;2023-04-01T03:40:18;98111.60;;;6.14;69.75
78064;BME280;67429;51.596;-3.264;2023-04-01T03:42:44;98113.12;;;6.48;69.29
78064;BME280;67429;51.596;-3.264;2023-04-01T03:45:10;98111.82;;;6.02;69.70
78064;BME280;67429;51.596;-3.264;2023-04-01T03:47:35;98116.00;;;6.99;68.28
78064;BME280;67429;51.596;-3.264;2023-04-01T03:50:01;98116.94;;;6.65;67.44
78064;BME280;67429;51.596;-3.264;2023-04-01T03:52:26;98123.14;;;6.76;66.27
78064;BME280;67429;51.596;-3.264;2023-04-01T03:54:52;98123.89;;;7.15;65.59
78064;BME280;67429;51.596;-3.264;2023-04-01T03:57:18;98126.30;;;7.52;64.91
78064;BME280;67429;51.596;-3.264;2023-04-01T03:59:44;98130.27;;;7.63;64.36
78064;BME280;67429;51.596;-3.264;2023-04-01T04:02:09;98133.66;;;7.75;64.45
78064;BME280;67429;51.596;-3.264;2023-04-01T04:04:35;98136.16;;;6.99;65.75
78064;BME280;67429;51.596;-3.264;2023-04-01T04:07:00;98139.97;;;7.46;64.89
78064;BME280;67429;51.596;-3.264;2023-04-01T04:09:26;98140.04;;;6.75;65.61
78064;BME280;67429;51.596;-3.264;2023-04-01T04:11:52;98139.67;;;7.27;65.25
78064;BME280;67429;51.596;-3.264;2023-04-01T04:14:17;98143.68;;;7.32;65.71
78064;BME280;67429;51.596;-3.264;2023-04-01T04:16:43;98142.50;;;6.81;65.81
78064;BME280;67429;51.596;-3.264;2023-04-01T04:19:09;98143.60;;;7.28;65.06
78064;BME280;67429;51.596;-3.264;2023-04-01T04:21:34;98144.47;;;6.99;64.85
78064;BME280;67429;51.596;-3.264;2023-04-01T04:24:01;98146.81;;;7.38;63.89
78064;BME280;67429;51.596;-3.264;2023-04-01T04:26:26;98152.43;;;7.29;63.64
78064;BME280;67429;51.596;-3.264;2023-04-01T04:28:51;98151.40;;;7.76;62.89
78064;BME280;67429;51.596;-3.264;2023-04-01T04:31:19;98150.03;;;8.35;62.20
78064;BME280;67429;51.596;-3.264;2023-04-01T04:33:43;98152.38;;;7.75;63.19
78064;BME280;67429;51.596;-3.264;2023-04-01T04:36:08;98153.19;;;7.67;63.83
78064;BME280;67429;51.596;-3.264;2023-04-01T04:38:34;98153.74;;;7.88;63.08
78064;BME280;67429;51.596;-3.264;2023-04-01T04:40:59;98151.78;;;8.07;63.45
78064;BME280;67429;51.596;-3.264;2023-04-01T04:43:25;98157.00;;;8.04;63.95
78064;BME280;67429;51.596;-3.264;2023-04-01T04:45:51;98158.54;;;7.81;63.76
78064;BME280;67429;51.596;-3.264;2023-04-01T04:48:17;98161.09;;;8.03;62.68
78064;BME280;67429;51.596;-3.264;2023-04-01T04:50:42;98163.99;;;8.26;62.59
78064;BME280;67429;51.596;-3.264;2023-04-01T04:53:09;98166.99;;;8.18;62.13
78064;BME280;67429;51.596;-3.264;2023-04-01T04:55:33;98169.87;;;8.23;62.61
78064;BME280;67429;51.596;-3.264;2023-04-01T04:57:59;98167.48;;;7.53;62.60
78064;BME280;67429;51.596;-3.264;2023-04-01T05:00:25;98170.76;;;7.67;63.87
78064;BME280;67429;51.596;-3.264;2023-04-01T05:02:50;98169.20;;;7.47;64.56
78064;BME280;67429;51.596;-3.264;2023-04-01T05:05:16;98168.76;;;6.77;65.91
78064;BME280;67429;51.596;-3.264;2023-04-01T05:07:42;98174.06;;;7.19;65.39
78064;BME280;67429;51.596;-3.264;2023-04-01T05:10:08;98174.40;;;7.17;65.39
78064;BME280;67429;51.596;-3.264;2023-04-01T05:12:33;98179.71;;;7.65;64.31
78064;BME280;67429;51.596;-3.264;2023-04-01T05:14:58;98184.07;;;7.72;63.79
78064;BME280;67429;51.596;-3.264;2023-04-01T05:17:25;98187.05;;;7.50;64.10
78064;BME280;67429;51.596;-3.264;2023-04-01T05:19:50;98188.30;;;7.53;64.79
78064;BME280;67429;51.596;-3.264;2023-04-01T05:22:15;98190.24;;;7.21;64.96
78064;BME280;67429;51.596;-3.264;2023-04-01T05:24:41;98192.75;;;7.72;63.42
78064;BME280;67429;51.596;-3.264;2023-04-01T05:27:07;98195.53;;;7.44;63.68
78064;BME280;67429;51.596;-3.264;2023-04-01T05:29:33;98196.81;;;7.60;64.20
78064;BME280;67429;51.596;-3.264;2023-04-01T05:31:59;98200.31;;;7.34;64.98
78064;BME280;67429;51.596;-3.264;2023-04-01T05:34:24;98206.69;;;7.78;64.19
78064;BME280;67429;51.596;-3.264;2023-04-01T05:36:49;98206.78;;;7.99;63.08
78064;BME280;67429;51.596;-3.264;2023-04-01T05:39:15;98207.36;;;8.10;63.55
78064;BME280;67429;51.596;-3.264;2023-04-01T05:41:41;98205.70;;;8.37;62.53
78064;BME280;67429;51.596;-3.264;2023-04-01T05:44:07;98207.25;;;8.39;62.36
78064;BME280;67429;51.596;-3.264;2023-04-01T05:46:32;98208.54;;;8.12;62.72
78064;BME280;67429;51.596;-3.264;2023-04-01T05:48:58;98212.35;;;7.60;64.32
78064;BME280;67429;51.596;-3.264;2023-04-01T05:51:24;98212.15;;;7.06;65.85
78064;BME280;67429;51.596;-3.264;2023-04-01T05:53:49;98214.17;;;7.37;65.41
78064;BME280;67429;51.596;-3.264;2023-04-01T05:56:15;98215.59;;;7.38;65.04
78064;BME280;67429;51.596;-3.264;2023-04-01T05:58:41;98218.15;;;7.01;66.06
78064;BME280;67429;51.596;-3.264;2023-04-01T06:01:08;98218.57;;;7.15;65.77
78064;BME280;67429;51.596;-3.264;2023-04-01T06:03:32;98219.12;;;7.45;65.96
78064;BME280;67429;51.596;-3.264;2023-04-01T06:05:58;98222.83;;;7.05;66.83
78064;BME280;67429;51.596;-3.264;2023-04-01T06:08:24;98227.52;;;7.25;65.85
78064;BME280;67429;51.596;-3.264;2023-04-01T06:10:59;98236.12;;;7.86;64.28
78064;BME280;67429;51.596;-3.264;2023-04-01T06:13:22;98240.65;;;7.59;64.62
78064;BME280;67429;51.596;-3.264;2023-04-01T06:15:44;98239.98;;;7.38;65.29
78064;BME280;67429;51.596;-3.264;2023-04-01T06:20:39;98238.95;;;7.80;64.56
78064;BME280;67429;51.596;-3.264;2023-04-01T06:23:10;98240.62;;;7.54;65.24
78064;BME280;67429;51.596;-3.264;2023-04-01T06:25:33;98244.15;;;7.61;64.41
78064;BME280;67429;51.596;-3.264;2023-04-01T06:28:00;98247.77;;;7.17;66.01
78064;BME280;67429;51.596;-3.264;2023-04-01T06:32:51;98257.66;;;6.97;68.01
78064;BME280;67429;51.596;-3.264;2023-04-01T06:35:20;98257.96;;;6.91;67.61
78064;BME280;67429;51.596;-3.264;2023-04-01T06:37:45;98258.39;;;7.05;67.32
78064;BME280;67429;51.596;-3.264;2023-04-01T06:40:16;98261.05;;;7.09;66.99
78064;BME280;67429;51.596;-3.264;2023-04-01T06:42:33;98266.18;;;7.61;65.76
78064;BME280;67429;51.596;-3.264;2023-04-01T06:44:58;98270.87;;;6.88;67.17
78064;BME280;67429;51.596;-3.264;2023-04-01T06:47:26;98273.39;;;7.33;67.07
78064;BME280;67429;51.596;-3.264;2023-04-01T06:49:48;98280.20;;;6.87;66.72
78064;BME280;67429;51.596;-3.264;2023-04-01T06:52:13;98282.47;;;6.55;67.04
78064;BME280;67429;51.596;-3.264;2023-04-01T06:54:33;98286.88;;;7.47;65.26
78064;BME280;67429;51.596;-3.264;2023-04-01T06:57:00;98285.94;;;7.03;65.76
78064;BME280;67429;51.596;-3.264;2023-04-01T06:59:25;98289.44;;;7.31;64.36
78064;BME280;67429;51.596;-3.264;2023-04-01T07:01:50;98291.73;;;7.20;66.08
78064;BME280;67429;51.596;-3.264;2023-04-01T07:04:16;98291.73;;;6.78;65.47
78064;BME280;67429;51.596;-3.264;2023-04-01T07:06:43;98290.23;;;7.50;64.41
78064;BME280;67429;51.596;-3.264;2023-04-01T07:09:08;98296.94;;;7.84;63.32
78064;BME280;67429;51.596;-3.264;2023-04-01T07:11:32;98299.24;;;7.46;63.97
78064;BME280;67429;51.596;-3.264;2023-04-01T07:14:01;98306.32;;;7.53;64.09
78064;BME280;67429;51.596;-3.264;2023-04-01T07:16:26;98310.05;;;7.55;63.52
78064;BME280;67429;51.596;-3.264;2023-04-01T07:18:51;98311.31;;;7.52;64.13
78064;BME280;67429;51.596;-3.264;2023-04-01T07:21:23;98311.26;;;6.85;65.13
78064;BME280;67429;51.596;-3.264;2023-04-01T07:23:42;98309.25;;;6.49;66.37
78064;BME280;67429;51.596;-3.264;2023-04-01T07:26:14;98307.95;;;7.15;65.74
78064;BME280;67429;51.596;-3.264;2023-04-01T07:28:31;98314.23;;;6.84;64.61
78064;BME280;67429;51.596;-3.264;2023-04-01T07:31:03;98316.19;;;7.25;63.83
78064;BME280;67429;51.596;-3.264;2023-04-01T07:33:26;98321.62;;;7.32;63.49
78064;BME280;67429;51.596;-3.264;2023-04-01T07:35:53;98322.37;;;7.13;64.24
78064;BME280;67429;51.596;-3.264;2023-04-01T07:38:20;98322.84;;;7.38;63.37
78064;BME280;67429;51.596;-3.264;2023-04-01T07:40:43;98323.84;;;7.50;63.34
78064;BME280;67429;51.596;-3.264;2023-04-01T07:43:16;98331.06;;;7.20;64.20
78064;BME280;67429;51.596;-3.264;2023-04-01T07:45:32;98335.77;;;7.47;64.23
78064;BME280;67429;51.596;-3.264;2023-04-01T07:48:08;98337.20;;;7.57;63.40
78064;BME280;67429;51.596;-3.264;2023-04-01T07:50:26;98341.51;;;7.84;62.23
78064;BME280;67429;51.596;-3.264;2023-04-01T07:52:55;98342.62;;;8.22;61.32
78064;BME280;67429;51.596;-3.264;2023-04-01T07:55:16;98343.53;;;8.28;60.79
78064;BME280;67429;51.596;-3.264;2023-04-01T07:57:44;98346.71;;;8.66;59.39
78064;BME280;67429;51.596;-3.264;2023-04-01T08:00:09;98352.17;;;8.63;59.97
78064;BME280;67429;51.596;-3.264;2023-04-01T08:02:38;98359.64;;;8.52;59.99
78064;BME280;67429;51.596;-3.264;2023-04-01T08:05:01;98357.41;;;9.41;58.55
78064;BME280;67429;51.596;-3.264;2023-04-01T08:07:24;98361.38;;;9.78;57.77
78064;BME280;67429;51.596;-3.264;2023-04-01T08:09:52;98356.26;;;10.08;57.48
78064;BME280;67429;51.596;-3.264;2023-04-01T08:12:23;98361.65;;;9.63;57.82
78064;BME280;67429;51.596;-3.264;2023-04-01T08:14:46;98364.16;;;9.83;57.65
78064;BME280;67429;51.596;-3.264;2023-04-01T08:17:07;98368.61;;;9.28;58.72
78064;BME280;67429;51.596;-3.264;2023-04-01T08:19:43;98373.84;;;9.26;58.41
78064;BME280;67429;51.596;-3.264;2023-04-01T08:21:58;98379.02;;;9.53;58.63
78064;BME280;67429;51.596;-3.264;2023-04-01T08:24:27;98378.15;;;9.70;58.76
78064;BME280;67429;51.596;-3.264;2023-04-01T08:26:50;98378.34;;;10.29;57.91
78064;BME280;67429;51.596;-3.264;2023-04-01T08:29:14;98382.70;;;10.11;57.79
78064;BME280;67429;51.596;-3.264;2023-04-01T08:31:40;98386.84;;;9.51;58.89
78064;BME280;67429;51.596;-3.264;2023-04-01T08:34:05;98391.53;;;9.27;59.88
78064;BME280;67429;51.596;-3.264;2023-04-01T08:36:31;98394.51;;;10.02;58.85
78064;BME280;67429;51.596;-3.264;2023-04-01T08:38:56;98397.33;;;9.14;59.53
78064;BME280;67429;51.596;-3.264;2023-04-01T08:41:33;98398.80;;;8.36;62.31
78064;BME280;67429;51.596;-3.264;2023-04-01T08:44:00;98399.05;;;8.12;62.82
78064;BME280;67429;51.596;-3.264;2023-04-01T08:46:19;98403.18;;;7.37;64.17
78064;BME280;67429;51.596;-3.264;2023-04-01T08:48:47;98408.08;;;7.37;64.67
78064;BME280;67429;51.596;-3.264;2023-04-01T08:51:20;98409.45;;;7.48;64.59
78064;BME280;67429;51.596;-3.264;2023-04-01T08:53:38;98412.25;;;7.01;64.68
78064;BME280;67429;51.596;-3.264;2023-04-01T08:56:04;98413.70;;;7.57;64.88
78064;BME280;67429;51.596;-3.264;2023-04-01T08:58:34;98418.83;;;7.98;63.69
78064;BME280;67429;51.596;-3.264;2023-04-01T09:00:47;98420.75;;;7.61;64.49
78064;BME280;67429;51.596;-3.264;2023-04-01T09:03:25;98423.06;;;7.17;65.47
78064;BME280;67429;51.596;-3.264;2023-04-01T09:05:47;98426.71;;;8.17;63.38
78064;BME280;67429;51.596;-3.264;2023-04-01T09:08:12;98432.30;;;7.99;63.20
78064;BME280;67429;51.596;-3.264;2023-04-01T09:10:43;98431.48;;;7.35;64.82
78064;BME280;67429;51.596;-3.264;2023-04-01T09:13:03;98434.79;;;7.66;63.94
78064;BME280;67429;51.596;-3.264;2023-04-01T09:15:29;98436.59;;;8.12;62.72
78064;BME280;67429;51.596;-3.264;2023-04-01T09:20:19;98438.20;;;8.29;63.29
78064;BME280;67429;51.596;-3.264;2023-04-01T09:22:47;98444.43;;;8.11;62.87
78064;BME280;67429;51.596;-3.264;2023-04-01T09:27:28;98446.30;;;8.27;63.13
78064;BME280;67429;51.596;-3.264;2023-04-01T09:30:06;98447.84;;;8.37;62.30
78064;BME280;67429;51.596;-3.264;2023-04-01T09:32:36;98451.88;;;8.68;61.87
78064;BME280;67429;51.596;-3.264;2023-04-01T09:34:53;98455.40;;;9.15;60.68
78064;BME280;67429;51.596;-3.264;2023-04-01T09:37:17;98453.29;;;9.06;60.67
78064;BME280;67429;51.596;-3.264;2023-04-01T09:39:36;98452.14;;;8.41;61.50
78064;BME280;67429;51.596;-3.264;2023-04-01T09:42:15;98454.81;;;8.40;61.94
78064;BME280;67429;51.596;-3.264;2023-04-01T09:44:32;98460.26;;;8.31;62.08
78064;BME280;67429;51.596;-3.264;2023-04-01T09:47:01;98460.37;;;8.06;63.38
78064;BME280;67429;51.596;-3.264;2023-04-01T09:49:34;98465.65;;;8.50;63.07
78064;BME280;67429;51.596;-3.264;2023-04-01T09:51:51;98468.56;;;8.66;62.46
78064;BME280;67429;51.596;-3.264;2023-04-01T09:54:20;98475.20;;;9.14;61.91
78064;BME280;67429;51.596;-3.264;2023-04-01T09:59:15;98474.27;;;8.74;62.53
78064;BME280;67429;51.596;-3.264;2023-04-01T10:01:38;98481.08;;;8.84;63.63
78064;BME280;67429;51.596;-3.264;2023-04-01T10:11:23;98497.84;;;9.52;60.64
78064;BME280;67429;51.596;-3.264;2023-04-01T10:14:01;98498.84;;;9.02;62.15
78064;BME280;67429;51.596;-3.264;2023-04-01T10:16:18;98503.35;;;8.54;60.99
78064;BME280;67429;51.596;-3.264;2023-04-01T10:18:46;98507.35;;;8.93;61.91
78064;BME280;67429;51.596;-3.264;2023-04-01T10:21:00;98513.02;;;9.68;60.71
78064;BME280;67429;51.596;-3.264;2023-04-01T10:23:38;98518.44;;;9.62;59.19
78064;BME280;67429;51.596;-3.264;2023-04-01T10:33:18;98525.50;;;10.68;57.21
78064;BME280;67429;51.596;-3.264;2023-04-01T10:35:39;98534.06;;;10.76;57.61
78064;BME280;67429;51.596;-3.264;2023-04-01T10:40:30;98545.87;;;10.38;59.01
78064;BME280;67429;51.596;-3.264;2023-04-01T10:42:55;98554.41;;;9.97;59.18
78064;BME280;67429;51.596;-3.264;2023-04-01T10:45:22;98560.05;;;9.49;60.84
78064;BME280;67429;51.596;-3.264;2023-04-01T10:52:40;98567.88;;;8.01;64.81
78064;BME280;67429;51.596;-3.264;2023-04-01T10:54:58;98574.90;;;9.12;63.69
78064;BME280;67429;51.596;-3.264;2023-04-01T10:59:58;98587.07;;;8.23;64.87
78064;BME280;67429;51.596;-3.264;2023-04-01T11:12:04;98601.50;;;9.35;60.39
78064;BME280;67429;51.596;-3.264;2023-04-01T11:16:56;98610.63;;;9.50;59.67
78064;BME280;67429;51.596;-3.264;2023-04-01T11:19:19;98609.93;;;8.89;60.77
78064;BME280;67429;51.596;-3.264;2023-04-01T11:24:12;98608.72;;;9.61;59.30
78064;BME280;67429;51.596;-3.264;2023-04-01T11:26:33;98617.05;;;10.42;58.42
78064;BME280;67429;51.596;-3.264;2023-04-01T11:28:57;98621.78;;;9.71;58.88
78064;BME280;67429;51.596;-3.264;2023-04-01T11:33:44;98632.53;;;11.48;54.15
78064;BME280;67429;51.596;-3.264;2023-04-01T11:36:15;98636.58;;;9.71;56.61
78064;BME280;67429;51.596;-3.264;2023-04-01T11:38:41;98647.68;;;11.40;55.25
78064;BME280;67429;51.596;-3.264;2023-04-01T11:41:01;98648.66;;;11.81;53.39
78064;BME280;67429;51.596;-3.264;2023-04-01T11:43:26;98656.73;;;12.03;51.79
78064;BME280;67429;51.596;-3.264;2023-04-01T11:45:50;98669.81;;;10.99;56.97
78064;BME280;67429;51.596;-3.264;2023-04-01T11:48:24;98672.41;;;10.99;57.12
78064;BME280;67429;51.596;-3.264;2023-04-01T11:50:46;98671.91;;;11.12;54.60
78064;BME280;67429;51.596;-3.264;2023-04-01T11:53:11;98673.17;;;11.61;55.70
78064;BME280;67429;51.596;-3.264;2023-04-01T11:55:37;98674.47;;;12.01;53.93
78064;BME280;67429;51.596;-3.264;2023-04-01T11:58:07;98680.40;;;12.39;53.48
78064;BME280;67429;51.596;-3.264;2023-04-01T12:02:55;98693.79;;;11.81;53.72
78064;BME280;67429;51.596;-3.264;2023-04-01T12:05:27;98698.21;;;11.33;53.32
78064;BME280;67429;51.596;-3.264;2023-04-01T12:07:54;98702.06;;;11.22;52.74
78064;BME280;67429;51.596;-3.264;2023-04-01T12:10:12;98710.16;;;11.72;51.70
78064;BME280;67429;51.596;-3.264;2023-04-01T12:12:35;98708.24;;;12.54;51.20
78064;BME280;67429;51.596;-3.264;2023-04-01T12:15:01;98714.03;;;11.94;51.71
78064;BME280;67429;51.596;-3.264;2023-04-01T12:17:27;98719.57;;;11.83;51.23
78064;BME280;67429;51.596;-3.264;2023-04-01T12:19:51;98721.32;;;11.93;52.35
78064;BME280;67429;51.596;-3.264;2023-04-01T12:22:23;98727.38;;;12.07;51.61
78064;BME280;67429;51.596;-3.264;2023-04-01T12:24:45;98729.16;;;10.58;54.04
78064;BME280;67429;51.596;-3.264;2023-04-01T12:27:13;98736.50;;;11.40;53.86
78064;BME280;67429;51.596;-3.264;2023-04-01T12:31:55;98742.16;;;12.32;50.84
78064;BME280;67429;51.596;-3.264;2023-04-01T12:36:51;98747.77;;;13.75;48.57
78064;BME280;67429;51.596;-3.264;2023-04-01T12:39:21;98752.97;;;13.64;46.92
78064;BME280;67429;51.596;-3.264;2023-04-01T12:41:41;98752.13;;;13.57;46.51
78064;BME280;67429;51.596;-3.264;2023-04-01T12:44:13;98759.31;;;13.34;46.95
78064;BME280;67429;51.596;-3.264;2023-04-01T12:46:28;98764.85;;;14.45;45.98
78064;BME280;67429;51.596;-3.264;2023-04-01T12:51:29;98769.20;;;11.80;48.51
78064;BME280;67429;51.596;-3.264;2023-04-01T12:56:11;98778.97;;;11.53;51.26
78064;BME280;67429;51.596;-3.264;2023-04-01T12:58:43;98781.80;;;13.08;46.66
78064;BME280;67429;51.596;-3.264;2023-04-01T13:01:15;98791.30;;;12.43;47.04
78064;BME280;67429;51.596;-3.264;2023-04-01T13:03:37;98788.67;;;12.73;46.68
78064;BME280;67429;51.596;-3.264;2023-04-01T13:08:25;98796.89;;;13.57;46.90
78064;BME280;67429;51.596;-3.264;2023-04-01T13:10:52;98795.90;;;13.48;44.43
78064;BME280;67429;51.596;-3.264;2023-04-01T13:13:19;98801.74;;;13.49;44.12
78064;BME280;67429;51.596;-3.264;2023-04-01T13:15:37;98808.87;;;11.59;46.79
78064;BME280;67429;51.596;-3.264;2023-04-01T13:18:06;98812.23;;;12.14;44.88
78064;BME280;67429;51.596;-3.264;2023-04-01T13:20:33;98807.24;;;13.61;45.75
78064;BME280;67429;51.596;-3.264;2023-04-01T13:23:00;98811.45;;;13.70;44.44
78064;BME280;67429;51.596;-3.264;2023-04-01T13:25:21;98820.76;;;13.78;42.97
78064;BME280;67429;51.596;-3.264;2023-04-01T13:27:41;98824.86;;;14.39;42.22
78064;BME280;67429;51.596;-3.264;2023-04-01T13:30:20;98824.97;;;15.39;40.36
78064;BME280;67429;51.596;-3.264;2023-04-01T13:32:36;98828.86;;;15.31;39.90
78064;BME280;67429;51.596;-3.264;2023-04-01T13:35:13;98828.06;;;15.03;38.81
78064;BME280;67429;51.596;-3.264;2023-04-01T13:37:32;98831.11;;;15.26;39.57
78064;BME280;67429;51.596;-3.264;2023-04-01T13:40:02;98825.40;;;15.52;40.48
78064;BME280;67429;51.596;-3.264;2023-04-01T13:42:18;98834.18;;;14.85;38.20
78064;BME280;67429;51.596;-3.264;2023-04-01T13:44:41;98841.01;;;14.01;39.73
78064;BME280;67429;51.596;-3.264;2023-04-01T13:49:54;98852.72;;;12.60;42.33
78064;BME280;67429;51.596;-3.264;2023-04-01T13:52:08;98847.39;;;14.03;41.40
78064;BME280;67429;51.596;-3.264;2023-04-01T13:54:33;98850.05;;;14.32;42.36
78064;BME280;67429;51.596;-3.264;2023-04-01T13:56:55;98858.62;;;13.84;41.20
78064;BME280;67429;51.596;-3.264;2023-04-01T14:01:41;98868.90;;;13.91;40.31
78064;BME280;67429;51.596;-3.264;2023-04-01T14:04:17;98870.67;;;13.16;41.86
78064;BME280;67429;51.596;-3.264;2023-04-01T14:06:33;98874.63;;;14.11;41.87